Time;durP1;ratioP1;P1;durP2;ratioP2;P2;SDS_P1;SDS_P2;PMS_P1;PMS_P2;Temp;Humidity;BMP_temperature;BMP_pressure;BME280_temperature;BME280_humidity;BME280_pressure;Samples;Min_cycle;Max_cycle;Signal;HPM_P1;HPM_P2
2023/03/06 00:00:33;;;;;;;3.47;1.08;;;2.30;99.90;;;;;;5074686;28;20370;-66
2023/03/06 00:02:59;;;;;;;2.75;1.15;;;2.30;99.90;;;;;;5057218;28;20043;-66
2023/03/06 00:05:25;;;;;;;5.55;1.35;;;2.40;99.90;;;;;;5074296;28;20126;-67
2023/03/06 00:07:50;;;;;;;4.03;1.20;;;2.40;99.90;;;;;;5074763;28;20041;-67
2023/03/06 00:10:28;;;;;;;3.90;1.10;;;2.50;99.90;;;;;;5092411;28;20040;-67
2023/03/06 00:12:59;;;;;;;2.35;0.85;;;2.50;99.90;;;;;;5094881;28;20499;-67
2023/03/06 00:15:25;;;;;;;3.47;1.10;;;2.60;99.90;;;;;;5077286;28;20127;-67
2023/03/06 00:17:52;;;;;;;4.20;1.30;;;2.70;99.90;;;;;;5095305;28;20036;-67
2023/03/06 00:20:19;;;;;;;5.95;1.00;;;2.80;99.90;;;;;;5094096;28;20094;-67
2023/03/06 00:22:45;;;;;;;3.03;0.93;;;2.80;99.90;;;;;;5095680;28;20044;-67
2023/03/06 00:25:13;;;;;;;5.40;1.60;;;2.90;99.90;;;;;;5093866;28;20040;-67
2023/03/06 00:27:39;;;;;;;4.45;1.02;;;2.90;99.90;;;;;;5094508;28;20093;-66
2023/03/06 00:30:06;;;;;;;3.00;0.95;;;3.00;99.90;;;;;;5094640;28;20062;-66
2023/03/06 00:32:32;;;;;;;3.20;1.00;;;3.00;99.90;;;;;;5094538;28;20082;-66
2023/03/06 00:34:58;;;;;;;3.38;1.20;;;3.00;99.90;;;;;;5094466;28;20452;-66
2023/03/06 00:37:24;;;;;;;4.45;1.38;;;3.00;99.90;;;;;;5094217;28;20047;-66
2023/03/06 00:39:50;;;;;;;4.43;1.35;;;3.10;99.90;;;;;;5113340;28;20161;-66
2023/03/06 00:42:17;;;;;;;4.95;1.30;;;3.20;99.90;;;;;;5096965;28;20127;-66
2023/03/06 00:44:42;;;;;;;4.78;1.52;;;3.20;99.90;;;;;;5115215;28;20047;-66
2023/03/06 00:47:08;;;;;;;8.10;1.52;;;3.20;99.90;;;;;;5115271;28;20039;-66
2023/03/06 00:49:34;;;;;;;4.60;1.40;;;3.20;99.90;;;;;;5115794;28;20046;-66
2023/03/06 00:52:00;;;;;;;3.95;1.40;;;3.30;99.90;;;;;;5113445;28;20039;-66
2023/03/06 00:54:26;;;;;;;3.42;1.50;;;3.20;99.90;;;;;;5114856;28;20047;-67
2023/03/06 00:56:51;;;;;;;3.97;1.77;;;3.30;99.90;;;;;;5115898;28;20036;-67
2023/03/06 00:59:17;;;;;;;5.93;1.60;;;3.30;99.90;;;;;;5112217;28;20547;-67
2023/03/06 01:01:43;;;;;;;6.28;1.85;;;3.30;99.90;;;;;;5115692;28;20036;-67
2023/03/06 01:04:08;;;;;;;6.95;1.60;;;3.40;99.90;;;;;;5114872;28;20522;-67
2023/03/06 01:06:34;;;;;;;4.60;1.63;;;3.40;99.90;;;;;;5113747;28;20131;-67
2023/03/06 01:09:00;;;;;;;3.40;1.27;;;3.40;99.90;;;;;;5113952;28;20062;-67
2023/03/06 01:11:26;;;;;;;7.53;1.90;;;3.40;99.90;;;;;;5113821;28;20495;-67
2023/03/06 01:13:51;;;;;;;4.70;1.50;;;3.40;99.90;;;;;;5114647;28;20036;-67
2023/03/06 01:16:18;;;;;;;4.47;1.70;;;3.40;99.90;;;;;;5113379;28;20396;-67
2023/03/06 01:18:45;;;;;;;4.38;1.55;;;3.40;99.90;;;;;;5114402;28;20036;-67
2023/03/06 01:21:11;;;;;;;5.22;1.63;;;3.50;99.90;;;;;;5095495;28;20038;-67
2023/03/06 01:23:37;;;;;;;5.72;1.60;;;3.40;99.90;;;;;;5113262;28;20043;-67
2023/03/06 01:26:04;;;;;;;7.80;1.88;;;3.50;99.90;;;;;;5115018;28;20119;-66
2023/03/06 01:28:30;;;;;;;5.47;1.55;;;3.50;99.90;;;;;;5113466;28;20096;-66
2023/03/06 01:30:56;;;;;;;3.10;1.23;;;3.50;99.90;;;;;;5113743;28;20082;-67
2023/03/06 01:33:22;;;;;;;9.35;1.58;;;3.50;99.90;;;;;;5112307;28;20039;-66
2023/03/06 01:35:48;;;;;;;3.05;1.30;;;3.50;99.90;;;;;;5114506;28;20043;-66
2023/03/06 01:38:13;;;;;;;3.08;1.00;;;3.50;99.90;;;;;;5106332;28;20032;-67
2023/03/06 01:40:40;;;;;;;4.55;1.55;;;3.50;99.90;;;;;;5093726;28;20094;-67
2023/03/06 01:43:28;;;;;;;4.05;1.13;;;3.50;99.90;;;;;;5092733;28;20048;-67
2023/03/06 01:46:20;;;;;;;3.05;0.95;;;3.50;99.90;;;;;;5093046;28;20044;-67
2023/03/06 01:48:47;;;;;;;4.07;0.73;;;3.50;99.90;;;;;;5093445;28;20040;-67
2023/03/06 01:51:14;;;;;;;0.60;0.40;;;3.40;99.90;;;;;;5092421;28;20036;-67
2023/03/06 01:53:42;;;;;;;0.52;0.20;;;3.30;99.90;;;;;;5093077;28;20040;-67
2023/03/06 01:56:09;;;;;;;7.68;0.80;;;3.20;99.90;;;;;;5091442;28;20496;-67
2023/03/06 01:58:35;;;;;;;1.55;0.20;;;3.20;99.90;;;;;;5092762;28;20036;-67
2023/03/06 02:01:01;;;;;;;3.08;0.20;;;3.10;99.90;;;;;;5092248;28;20071;-68
2023/03/06 02:03:27;;;;;;;1.85;0.35;;;3.10;99.90;;;;;;5091955;28;20457;-67
2023/03/06 02:05:54;;;;;;;0.00;0.00;;;3.00;99.90;;;;;;5092741;28;20100;-66
2023/03/06 02:08:22;;;;;;;0.20;0.10;;;3.00;99.90;;;;;;5103689;28;20114;-67
2023/03/06 02:10:56;;;;;;;1.25;0.38;;;3.00;99.90;;;;;;5114443;28;20259;-67
2023/03/06 02:13:22;;;;;;;1.27;0.50;;;2.90;99.90;;;;;;5112248;28;20036;-67
2023/03/06 02:15:48;;;;;;;2.53;0.57;;;2.90;99.90;;;;;;5113187;28;20381;-66
2023/03/06 02:18:13;;;;;;;2.95;0.90;;;2.80;99.90;;;;;;5112324;28;20035;-66
2023/03/06 02:20:47;;;;;;;1.80;0.60;;;2.70;99.90;;;;;;5114118;28;20157;-66
2023/03/06 02:23:48;;;;;;;1.58;0.50;;;2.70;99.90;;;;;;5111032;28;20080;-66
2023/03/06 02:26:15;;;;;;;1.98;0.63;;;2.70;99.90;;;;;;5112022;28;20071;-66
2023/03/06 02:28:41;;;;;;;3.20;0.90;;;2.60;99.90;;;;;;5112458;28;20118;-66
2023/03/06 02:31:06;;;;;;;0.93;0.38;;;2.60;99.90;;;;;;5109594;28;20168;-66
2023/03/06 02:33:32;;;;;;;3.65;0.50;;;2.60;99.90;;;;;;5113437;28;20039;-66
2023/03/06 02:35:59;;;;;;;1.02;0.40;;;2.60;99.90;;;;;;5112262;28;20046;-66
2023/03/06 02:38:47;;;;;;;1.65;0.68;;;2.50;99.90;;;;;;5094463;28;20392;-66
2023/03/06 02:41:13;;;;;;;1.83;0.65;;;2.50;99.90;;;;;;5112862;28;20058;-66
2023/03/06 02:43:42;;;;;;;1.98;0.70;;;2.40;99.90;;;;;;5094762;28;20043;-66
2023/03/06 02:46:08;;;;;;;3.50;1.08;;;2.40;99.90;;;;;;5111292;28;20040;-66
2023/03/06 02:48:33;;;;;;;2.72;0.82;;;2.30;99.90;;;;;;5113437;28;20043;-66
2023/03/06 02:50:59;;;;;;;2.95;1.05;;;2.30;99.90;;;;;;5111406;28;20035;-66
2023/03/06 02:53:25;;;;;;;3.30;1.20;;;2.20;99.90;;;;;;5111643;28;20519;-66
2023/03/06 02:55:51;;;;;;;2.28;0.90;;;2.20;99.90;;;;;;5112450;28;20043;-66
2023/03/06 02:58:20;;;;;;;3.40;1.10;;;2.20;99.90;;;;;;5110784;28;20503;-66
2023/03/06 03:00:47;;;;;;;3.53;1.00;;;2.20;99.90;;;;;;5111822;28;20078;-66
2023/03/06 03:03:13;;;;;;;3.03;1.10;;;2.10;99.90;;;;;;5112621;28;20036;-66
2023/03/06 03:05:39;;;;;;;3.30;1.08;;;2.10;99.90;;;;;;5112251;28;20043;-66
2023/03/06 03:08:05;;;;;;;3.58;1.10;;;2.00;99.90;;;;;;5098430;28;20469;-66
2023/03/06 03:10:30;;;;;;;2.70;1.08;;;2.00;99.90;;;;;;5091531;28;20039;-66
2023/03/06 03:12:57;;;;;;;4.10;0.85;;;2.00;99.90;;;;;;5090788;28;20032;-66
2023/03/06 03:15:23;;;;;;;4.80;1.45;;;1.90;99.90;;;;;;5092024;28;20036;-66
2023/03/06 03:17:48;;;;;;;3.22;1.10;;;1.90;99.90;;;;;;5091379;28;20032;-66
2023/03/06 03:20:17;;;;;;;2.88;1.00;;;1.90;99.90;;;;;;5089760;28;20040;-66
2023/03/06 03:22:50;;;;;;;3.40;1.00;;;1.90;99.90;;;;;;5087766;28;20393;-66
2023/03/06 03:25:17;;;;;;;3.22;0.85;;;1.80;99.90;;;;;;5072022;28;20040;-66
2023/03/06 03:27:43;;;;;;;3.33;1.05;;;1.80;99.90;;;;;;5087332;28;20040;-66
2023/03/06 03:30:09;;;;;;;5.18;1.13;;;1.80;99.90;;;;;;5070594;28;20480;-66
2023/03/06 03:32:35;;;;;;;2.70;1.05;;;1.70;99.90;;;;;;5087937;28;20142;-66
2023/03/06 03:35:01;;;;;;;3.78;1.23;;;1.80;99.90;;;;;;5086620;28;20500;-66
2023/03/06 03:37:27;;;;;;;3.30;1.10;;;1.70;99.90;;;;;;5113918;27;20035;-66
2023/03/06 03:39:52;;;;;;;3.40;1.30;;;1.70;99.90;;;;;;5110658;28;20036;-66
2023/03/06 03:42:18;;;;;;;3.70;1.30;;;1.70;99.90;;;;;;5110758;28;20097;-66
2023/03/06 03:44:44;;;;;;;5.80;1.27;;;1.70;99.90;;;;;;5111478;28;20467;-66
2023/03/06 03:47:09;;;;;;;3.53;1.38;;;1.70;99.90;;;;;;5111182;28;20050;-66
2023/03/06 03:49:35;;;;;;;3.25;1.30;;;1.70;99.90;;;;;;5112528;28;20515;-66
2023/03/06 03:52:01;;;;;;;3.45;1.10;;;1.60;99.90;;;;;;5110501;28;20070;-66
2023/03/06 03:54:26;;;;;;;4.47;1.23;;;1.60;99.90;;;;;;5110071;28;20035;-66
2023/03/06 03:56:52;;;;;;;6.32;1.83;;;1.60;99.90;;;;;;5111260;28;20036;-66
2023/03/06 03:59:18;;;;;;;5.28;1.58;;;1.60;99.90;;;;;;5112009;28;20081;-66
2023/03/06 04:01:44;;;;;;;5.88;2.05;;;1.60;99.90;;;;;;5110406;28;20042;-66
2023/03/06 04:04:10;;;;;;;5.25;1.85;;;1.50;99.90;;;;;;5111746;28;20050;-66
2023/03/06 04:06:36;;;;;;;5.80;2.97;;;1.60;99.90;;;;;;5111183;28;20035;-66
2023/03/06 04:09:03;;;;;;;4.60;1.85;;;1.50;99.90;;;;;;5093173;28;20382;-66
2023/03/06 04:11:29;;;;;;;4.90;1.95;;;1.50;99.90;;;;;;5087206;28;20045;-66
2023/03/06 04:13:55;;;;;;;3.78;1.60;;;1.50;99.90;;;;;;5070692;28;20051;-66
2023/03/06 04:16:20;;;;;;;4.40;1.38;;;1.60;99.90;;;;;;5085842;28;20067;-66
2023/03/06 04:18:46;;;;;;;3.50;1.20;;;1.60;99.90;;;;;;5087534;28;20079;-66
2023/03/06 04:21:12;;;;;;;5.70;1.60;;;1.70;99.90;;;;;;5071756;28;20478;-66
2023/03/06 04:23:37;;;;;;;5.40;2.58;;;1.70;99.90;;;;;;5093369;28;20043;-65
2023/03/06 04:26:03;;;;;;;6.63;2.70;;;1.70;99.90;;;;;;5110719;28;20040;-66
2023/03/06 04:28:29;;;;;;;5.50;2.08;;;1.70;99.90;;;;;;5110891;28;20040;-66
2023/03/06 04:30:55;;;;;;;4.72;1.52;;;1.70;99.90;;;;;;5110079;28;20039;-66
2023/03/06 04:33:20;;;;;;;4.65;1.60;;;1.80;99.90;;;;;;5110253;28;20101;-66
2023/03/06 04:35:46;;;;;;;3.80;1.42;;;1.80;99.90;;;;;;5096350;28;20088;-66
2023/03/06 04:38:12;;;;;;;3.35;1.15;;;1.80;99.90;;;;;;5095146;28;20040;-66
2023/03/06 04:40:38;;;;;;;4.85;1.80;;;1.80;99.90;;;;;;5096580;28;20044;-66
2023/03/06 04:43:04;;;;;;;3.90;1.50;;;1.80;99.90;;;;;;5094589;28;20082;-66
2023/03/06 04:45:30;;;;;;;3.40;1.17;;;1.80;99.90;;;;;;5094059;28;20036;-66
2023/03/06 04:47:57;;;;;;;5.03;1.58;;;1.80;99.90;;;;;;5094164;28;20075;-66
2023/03/06 04:50:24;;;;;;;3.47;1.45;;;1.80;99.90;;;;;;5092867;28;20354;-66
2023/03/06 04:52:50;;;;;;;4.93;2.13;;;1.80;99.90;;;;;;5077278;28;20047;-66
2023/03/06 04:55:16;;;;;;;4.43;1.52;;;1.80;99.90;;;;;;5090046;28;20036;-66
2023/03/06 04:57:46;;;;;;;6.28;2.13;;;1.70;99.90;;;;;;5073065;28;20043;-66
2023/03/06 05:00:18;;;;;;;4.95;1.70;;;1.70;99.90;;;;;;5089893;28;20078;-66
2023/03/06 05:02:45;;;;;;;4.30;1.80;;;1.70;99.90;;;;;;5073899;28;20041;-66
2023/03/06 05:05:12;;;;;;;5.75;1.52;;;1.70;99.90;;;;;;5072179;28;20123;-65
2023/03/06 05:07:38;;;;;;;5.75;1.98;;;1.70;99.90;;;;;;5090631;28;20059;-66
2023/03/06 05:10:04;;;;;;;4.57;1.60;;;1.60;99.90;;;;;;5075167;28;20127;-66
2023/03/06 05:12:30;;;;;;;5.22;1.92;;;1.60;99.90;;;;;;5093266;28;20496;-66
2023/03/06 05:14:57;;;;;;;4.47;1.75;;;1.60;99.90;;;;;;5093634;28;20047;-66
2023/03/06 05:17:22;;;;;;;3.72;1.55;;;1.60;99.90;;;;;;5092813;28;20094;-65
2023/03/06 05:19:48;;;;;;;4.57;1.65;;;1.60;99.90;;;;;;5076152;28;20036;-66
2023/03/06 05:22:14;;;;;;;4.07;1.58;;;1.50;99.90;;;;;;5076004;28;20485;-66
2023/03/06 05:24:40;;;;;;;4.03;1.70;;;1.50;99.90;;;;;;5095091;28;20050;-66
2023/03/06 05:27:06;;;;;;;4.32;1.63;;;1.50;99.90;;;;;;5093346;28;20046;-66
2023/03/06 05:29:31;;;;;;;5.85;1.95;;;1.50;99.90;;;;;;5110086;28;20043;-66
2023/03/06 05:31:57;;;;;;;4.70;1.98;;;1.50;99.90;;;;;;5113652;28;20052;-66
2023/03/06 05:34:23;;;;;;;4.68;2.10;;;1.50;99.90;;;;;;5112417;28;20069;-66
2023/03/06 05:36:49;;;;;;;6.20;1.77;;;1.50;99.90;;;;;;5113972;28;20589;-66
2023/03/06 05:39:14;;;;;;;4.63;2.00;;;1.50;99.90;;;;;;5095703;28;20077;-66
2023/03/06 05:41:40;;;;;;;10.20;2.35;;;1.50;99.90;;;;;;5114006;27;20052;-66
2023/03/06 05:44:06;;;;;;;5.00;1.75;;;1.50;99.90;;;;;;5114049;28;20134;-66
2023/03/06 05:46:31;;;;;;;4.90;2.05;;;1.40;99.90;;;;;;5112252;28;20037;-66
2023/03/06 05:48:57;;;;;;;5.65;1.85;;;1.40;99.90;;;;;;5113171;28;20042;-66
2023/03/06 05:51:23;;;;;;;4.60;1.63;;;1.40;99.90;;;;;;5113976;28;20123;-66
2023/03/06 05:53:49;;;;;;;5.45;1.88;;;1.40;99.90;;;;;;5113422;28;20449;-66
2023/03/06 05:56:15;;;;;;;6.07;1.90;;;1.40;99.90;;;;;;5095950;28;20040;-66
2023/03/06 05:58:41;;;;;;;5.55;1.73;;;1.40;99.90;;;;;;5096130;28;20036;-66
2023/03/06 06:01:09;;;;;;;5.10;1.83;;;1.40;99.90;;;;;;5113283;28;20110;-66
2023/03/06 06:03:35;;;;;;;4.75;1.88;;;1.30;99.90;;;;;;5114554;28;20055;-66
2023/03/06 06:06:03;;;;;;;6.07;1.80;;;1.30;99.90;;;;;;5092249;28;20066;-66
2023/03/06 06:08:29;;;;;;;6.07;1.90;;;1.30;99.90;;;;;;5054509;28;20039;-66
2023/03/06 06:10:54;;;;;;;4.07;1.60;;;1.30;99.90;;;;;;5055688;28;20041;-66
2023/03/06 06:13:20;;;;;;;5.40;1.60;;;1.20;99.90;;;;;;5072649;28;20052;-66
2023/03/06 06:15:46;;;;;;;4.32;1.77;;;1.30;99.90;;;;;;5071555;28;20036;-66
2023/03/06 06:18:11;;;;;;;4.68;1.63;;;1.30;99.90;;;;;;5072868;28;20068;-66
2023/03/06 06:20:37;;;;;;;3.70;1.60;;;1.20;99.90;;;;;;5105071;28;20092;-66
2023/03/06 06:23:03;;;;;;;5.43;1.77;;;1.20;99.90;;;;;;5111838;28;20032;-66
2023/03/06 06:25:29;;;;;;;4.20;1.77;;;1.20;99.90;;;;;;5112456;28;20046;-66
2023/03/06 06:27:55;;;;;;;6.13;1.98;;;1.20;99.90;;;;;;5112325;28;20112;-65
2023/03/06 06:30:21;;;;;;;5.75;2.58;;;1.20;99.90;;;;;;5111180;28;20070;-66
2023/03/06 06:32:47;;;;;;;5.25;1.88;;;1.20;99.90;;;;;;5112649;28;20043;-66
2023/03/06 06:35:13;;;;;;;4.93;2.30;;;1.20;99.90;;;;;;5111346;28;20389;-66
2023/03/06 06:37:39;;;;;;;6.78;2.60;;;1.10;99.90;;;;;;5112952;28;20464;-66
2023/03/06 06:40:05;;;;;;;5.47;2.03;;;1.20;99.90;;;;;;5112137;28;20067;-66
2023/03/06 06:42:31;;;;;;;5.00;2.40;;;1.10;99.90;;;;;;5113305;28;20052;-66
2023/03/06 06:44:57;;;;;;;4.70;2.10;;;1.20;99.90;;;;;;5112861;28;20399;-66
2023/03/06 06:47:22;;;;;;;5.63;2.15;;;1.20;99.90;;;;;;5111829;28;20043;-66
2023/03/06 06:49:49;;;;;;;8.32;2.58;;;1.20;99.90;;;;;;5092317;28;20124;-66
2023/03/06 06:52:17;;;;;;;5.50;2.35;;;1.10;99.90;;;;;;5072176;28;20044;-66
2023/03/06 06:54:43;;;;;;;6.30;2.80;;;1.20;99.90;;;;;;5076455;28;20036;-66
2023/03/06 06:57:10;;;;;;;6.35;2.90;;;1.10;99.90;;;;;;5089677;28;20529;-66
2023/03/06 06:59:36;;;;;;;7.40;3.38;;;1.20;99.90;;;;;;5092096;28;20478;-66
2023/03/06 07:02:02;;;;;;;7.07;3.25;;;1.20;99.90;;;;;;5096274;28;20119;-66
2023/03/06 07:04:27;;;;;;;7.90;3.75;;;1.20;99.90;;;;;;5079066;28;20075;-66
2023/03/06 07:06:56;;;;;;;7.75;3.33;;;1.20;99.90;;;;;;5097802;28;20035;-66
2023/03/06 07:09:22;;;;;;;7.45;3.63;;;1.20;99.90;;;;;;5112677;28;20118;-64
2023/03/06 07:11:48;;;;;;;6.63;3.03;;;1.30;99.90;;;;;;5111110;28;20126;-63
2023/03/06 07:14:14;;;;;;;8.25;3.20;;;1.30;99.90;;;;;;5111423;28;20035;-63
2023/03/06 07:16:39;;;;;;;5.28;2.60;;;1.40;99.90;;;;;;5111953;28;20036;-63
2023/03/06 07:19:08;;;;;;;8.43;3.03;;;1.40;99.90;;;;;;5110359;28;20034;-63
2023/03/06 07:21:34;;;;;;;8.57;2.97;;;1.50;99.90;;;;;;5111739;28;20035;-63
2023/03/06 07:24:00;;;;;;;7.70;3.75;;;1.50;99.90;;;;;;5111548;28;20046;-63
2023/03/06 07:26:26;;;;;;;7.07;3.58;;;1.60;99.90;;;;;;5079874;28;20427;-63
2023/03/06 07:28:53;;;;;;;7.20;3.03;;;1.60;99.90;;;;;;5086979;28;20043;-64
2023/03/06 07:31:21;;;;;;;6.80;3.63;;;1.60;99.90;;;;;;5096812;28;20120;-64
2023/03/06 07:33:48;;;;;;;6.00;3.33;;;1.70;99.90;;;;;;5085535;28;20046;-64
2023/03/06 07:36:13;;;;;;;6.15;3.30;;;1.80;99.90;;;;;;5089500;28;20035;-64
2023/03/06 07:38:39;;;;;;;6.45;3.40;;;1.80;99.90;;;;;;5075058;28;20051;-64
2023/03/06 07:41:08;;;;;;;6.97;3.22;;;1.90;99.90;;;;;;5087515;28;20043;-65
2023/03/06 07:43:34;;;;;;;5.13;2.60;;;1.80;99.90;;;;;;5101708;28;20058;-64
2023/03/06 07:46:00;;;;;;;5.22;2.20;;;1.90;99.90;;;;;;5107376;28;20484;-65
2023/03/06 07:48:26;;;;;;;6.45;2.00;;;2.10;99.90;;;;;;5089068;28;20044;-64
2023/03/06 07:51:00;;;;;;;5.05;1.48;;;2.10;99.90;;;;;;5088410;28;20036;-64
2023/03/06 07:53:27;;;;;;;6.70;2.45;;;2.30;99.90;;;;;;5087787;28;20035;-64
2023/03/06 07:55:53;;;;;;;5.07;1.80;;;2.40;99.90;;;;;;5105391;28;20088;-63
2023/03/06 07:58:19;;;;;;;3.70;1.50;;;2.50;99.90;;;;;;5097414;28;20119;-63
2023/03/06 08:00:45;;;;;;;5.32;1.80;;;2.50;99.90;;;;;;5083751;28;20027;-64
2023/03/06 08:03:11;;;;;;;5.45;1.48;;;2.60;99.90;;;;;;5079976;28;20118;-64
2023/03/06 08:05:37;;;;;;;5.15;1.50;;;2.60;99.90;;;;;;5081778;28;20079;-64
2023/03/06 08:08:03;;;;;;;3.65;1.10;;;2.60;99.90;;;;;;5063606;28;20464;-64
2023/03/06 08:10:28;;;;;;;7.30;1.70;;;2.70;99.90;;;;;;5095369;28;20040;-64
2023/03/06 08:12:54;;;;;;;6.50;1.52;;;2.70;99.90;;;;;;5099149;28;20033;-64
2023/03/06 08:15:20;;;;;;;5.65;1.50;;;2.80;99.90;;;;;;5062108;28;20077;-63
2023/03/06 08:17:46;;;;;;;5.30;1.98;;;2.80;99.90;;;;;;5088098;28;20060;-64
2023/03/06 08:20:13;;;;;;;5.25;1.83;;;2.90;99.90;;;;;;5093559;28;20042;-64
2023/03/06 08:22:39;;;;;;;5.15;1.83;;;2.90;99.90;;;;;;5080814;28;20044;-64
2023/03/06 08:25:06;;;;;;;5.63;1.95;;;3.00;99.90;;;;;;5085838;28;20032;-64
2023/03/06 08:27:33;;;;;;;5.55;2.25;;;3.00;99.90;;;;;;5094023;28;20104;-64
2023/03/06 08:29:59;;;;;;;6.82;2.42;;;3.00;99.90;;;;;;5059157;28;20131;-64
2023/03/06 08:32:24;;;;;;;9.00;2.53;;;3.00;99.90;;;;;;5073225;28;20151;-64
2023/03/06 08:34:50;;;;;;;4.55;1.95;;;3.10;99.90;;;;;;5084211;28;20829;-64
2023/03/06 08:37:16;;;;;;;7.95;3.10;;;3.10;99.90;;;;;;5072006;28;20045;-64
2023/03/06 08:39:41;;;;;;;6.57;3.22;;;3.20;99.90;;;;;;5062691;28;20036;-64
2023/03/06 08:42:09;;;;;;;5.72;2.20;;;3.20;99.90;;;;;;5070907;28;20055;-64
2023/03/06 08:44:35;;;;;;;6.53;2.30;;;3.30;99.90;;;;;;5085991;28;20097;-64
2023/03/06 08:47:00;;;;;;;7.32;2.17;;;3.40;99.90;;;;;;5086060;28;20045;-64
2023/03/06 08:49:27;;;;;;;4.82;1.67;;;3.50;99.90;;;;;;5088427;28;20098;-64
2023/03/06 08:51:53;;;;;;;6.45;1.70;;;3.60;99.90;;;;;;5079860;28;20052;-64
2023/03/06 08:54:19;;;;;;;6.05;1.80;;;3.60;99.90;;;;;;5075247;28;20374;-64
2023/03/06 08:56:45;;;;;;;5.05;1.90;;;3.70;99.90;;;;;;5081076;28;20032;-64
2023/03/06 08:59:12;;;;;;;5.05;1.77;;;3.80;99.90;;;;;;5086362;28;20040;-64
2023/03/06 09:01:38;;;;;;;5.35;1.80;;;3.90;99.90;;;;;;5053696;28;20600;-64
2023/03/06 09:04:10;;;;;;;4.40;1.92;;;3.90;99.90;;;;;;5070849;28;20049;-64
2023/03/06 09:06:38;;;;;;;5.18;1.73;;;3.90;99.90;;;;;;5071643;28;20041;-64
2023/03/06 09:09:05;;;;;;;7.32;1.70;;;3.90;99.90;;;;;;5078399;28;20041;-64
2023/03/06 09:11:31;;;;;;;5.10;1.52;;;4.00;99.90;;;;;;5071109;28;20032;-64
2023/03/06 09:13:57;;;;;;;7.10;1.20;;;4.00;99.90;;;;;;5071554;28;20067;-64
2023/03/06 09:16:23;;;;;;;3.35;1.10;;;4.10;99.90;;;;;;5097661;28;20074;-64
2023/03/06 09:18:51;;;;;;;7.30;1.38;;;4.20;99.90;;;;;;5085031;28;20048;-64
2023/03/06 09:21:18;;;;;;;3.25;0.98;;;4.20;99.90;;;;;;5052305;28;20079;-64
2023/03/06 09:23:44;;;;;;;4.38;1.30;;;4.30;99.90;;;;;;5078452;28;20416;-64
2023/03/06 09:26:11;;;;;;;4.70;0.90;;;4.40;99.90;;;;;;5097206;28;20039;-64
2023/03/06 09:28:38;;;;;;;4.65;1.05;;;4.50;99.90;;;;;;5095737;28;20093;-64
2023/03/06 09:31:15;;;;;;;3.50;1.08;;;4.50;99.90;;;;;;5085150;28;20062;-64
2023/03/06 09:33:41;;;;;;;2.38;0.65;;;4.70;99.90;;;;;;5088145;28;20409;-64
2023/03/06 09:36:09;;;;;;;2.90;0.70;;;4.70;99.90;;;;;;5078437;28;20063;-64
2023/03/06 09:38:34;;;;;;;5.18;0.93;;;4.80;99.90;;;;;;5057742;28;20041;-64
2023/03/06 09:41:03;;;;;;;2.13;0.68;;;4.80;99.90;;;;;;5053029;28;20459;-64
2023/03/06 09:43:34;;;;;;;2.45;0.70;;;4.90;99.90;;;;;;5086873;28;20111;-64
2023/03/06 09:46:05;;;;;;;2.70;0.63;;;4.90;99.90;;;;;;5090161;28;20032;-64
2023/03/06 09:48:42;;;;;;;1.83;0.73;;;5.00;99.90;;;;;;5089333;28;20031;-64
2023/03/06 09:51:15;;;;;;;3.33;0.88;;;5.10;99.90;;;;;;5090632;28;20076;-63
2023/03/06 09:53:51;;;;;;;5.15;1.38;;;5.10;99.90;;;;;;5088798;28;20101;-63
2023/03/06 09:56:21;;;;;;;5.10;1.20;;;5.10;99.90;;;;;;5094959;28;20126;-63
2023/03/06 09:59:31;;;;;;;4.03;1.05;;;5.10;99.90;;;;;;5088524;28;20036;-63
2023/03/06 10:02:11;;;;;;;3.08;1.05;;;5.20;99.90;;;;;;5059541;28;20040;-63
2023/03/06 10:04:54;;;;;;;4.60;0.80;;;5.20;99.90;;;;;;5083333;28;20051;-63
2023/03/06 10:07:24;;;;;;;2.90;0.90;;;5.20;99.90;;;;;;5078419;28;20119;-64
2023/03/06 10:10:01;;;;;;;3.42;1.00;;;5.20;99.90;;;;;;5080483;28;20508;-63
2023/03/06 10:12:48;;;;;;;5.72;2.05;;;5.10;99.90;;;;;;5076239;28;20102;-64
2023/03/06 10:15:33;;;;;;;2.58;0.80;;;5.10;99.90;;;;;;5084395;28;20147;-64
2023/03/06 10:18:00;;;;;;;2.65;0.90;;;5.10;99.90;;;;;;5071318;28;20036;-63
2023/03/06 10:20:44;;;;;;;3.67;0.90;;;5.00;99.90;;;;;;5101598;28;20040;-63
2023/03/06 10:23:36;;;;;;;6.32;1.23;;;5.00;99.90;;;;;;5075307;28;20059;-64
2023/03/06 10:26:23;;;;;;;2.33;0.70;;;4.90;99.90;;;;;;5089934;28;20044;-63
2023/03/06 10:29:13;;;;;;;3.13;0.50;;;4.80;99.90;;;;;;5076990;28;20059;-64
2023/03/06 10:31:43;;;;;;;3.10;0.63;;;4.80;99.90;;;;;;5043397;28;20063;-64
2023/03/06 10:34:31;;;;;;;2.78;0.73;;;4.80;99.90;;;;;;5062291;28;20051;-64
2023/03/06 10:37:04;;;;;;;4.50;0.80;;;4.80;99.90;;;;;;5096842;28;20563;-64
2023/03/06 10:39:30;;;;;;;2.30;0.90;;;4.90;99.90;;;;;;5084792;28;20067;-64
2023/03/06 10:41:56;;;;;;;3.08;0.85;;;4.90;99.90;;;;;;5082375;28;20165;-64
2023/03/06 10:44:22;;;;;;;4.07;0.68;;;4.80;99.90;;;;;;5078993;28;20114;-64
2023/03/06 10:46:51;;;;;;;2.22;0.70;;;4.70;99.90;;;;;;5075456;28;20060;-64
2023/03/06 10:49:35;;;;;;;2.45;0.65;;;4.70;99.90;;;;;;5079169;28;20527;-64
2023/03/06 10:52:12;;;;;;;4.88;0.70;;;4.60;99.90;;;;;;5089833;28;20492;-64
2023/03/06 10:54:40;;;;;;;2.40;1.00;;;4.60;99.90;;;;;;5080089;28;20079;-64
2023/03/06 10:57:30;;;;;;;2.85;0.93;;;4.60;99.90;;;;;;5079530;28;20040;-64
2023/03/06 10:59:58;;;;;;;2.80;0.85;;;4.70;99.90;;;;;;5078555;28;20605;-64
2023/03/06 11:02:26;;;;;;;2.80;0.90;;;4.60;99.90;;;;;;5087914;28;20077;-64
2023/03/06 11:04:56;;;;;;;2.88;0.75;;;4.50;99.90;;;;;;5080568;28;20195;-64
2023/03/06 11:07:28;;;;;;;7.63;1.05;;;4.60;99.90;;;;;;5080338;28;20051;-64
2023/03/06 11:09:57;;;;;;;4.82;1.42;;;4.70;99.90;;;;;;5073167;28;20092;-64
2023/03/06 11:12:32;;;;;;;3.38;0.90;;;4.70;99.90;;;;;;5102029;28;20032;-64
2023/03/06 11:15:13;;;;;;;2.80;0.85;;;4.80;99.90;;;;;;5089083;28;20075;-64
2023/03/06 11:17:51;;;;;;;3.95;0.90;;;4.70;99.90;;;;;;5087954;28;20044;-64
2023/03/06 11:20:39;;;;;;;4.47;0.90;;;4.70;99.90;;;;;;5089165;28;20032;-64
2023/03/06 11:23:15;;;;;;;4.32;0.80;;;4.70;99.90;;;;;;5084537;28;20508;-64
2023/03/06 11:26:00;;;;;;;4.43;0.93;;;4.70;99.90;;;;;;5086480;28;20055;-64
2023/03/06 11:28:37;;;;;;;2.15;0.63;;;4.70;99.90;;;;;;5082423;28;20044;-64
2023/03/06 11:31:13;;;;;;;4.10;1.13;;;4.80;99.90;;;;;;5087741;28;20040;-64
2023/03/06 11:33:53;;;;;;;2.28;0.95;;;4.90;99.90;;;;;;5088639;28;20488;-64
2023/03/06 11:36:32;;;;;;;4.15;1.00;;;4.90;99.90;;;;;;5068102;28;20040;-64
2023/03/06 11:38:58;;;;;;;1.27;0.50;;;5.00;99.90;;;;;;5068920;28;20135;-64
2023/03/06 11:41:34;;;;;;;2.78;0.75;;;5.20;99.90;;;;;;5085888;28;20066;-65
2023/03/06 11:44:33;;;;;;;1.80;0.70;;;5.40;99.90;;;;;;5073163;28;20048;-65
2023/03/06 11:47:14;;;;;;;4.43;0.90;;;5.80;99.90;;;;;;5071121;28;20047;-65
2023/03/06 11:49:44;;;;;;;1.55;0.70;;;6.00;99.90;;;;;;5075807;28;20043;-65
2023/03/06 11:52:38;;;;;;;1.58;0.50;;;6.20;99.90;;;;;;5069611;28;20037;-65
2023/03/06 11:55:04;;;;;;;4.38;0.73;;;6.30;99.90;;;;;;5064772;28;20053;-68
2023/03/06 11:58:08;;;;;;;3.80;0.80;;;6.40;99.90;;;;;;5074443;28;20036;-64
2023/03/06 12:00:46;;;;;;;1.85;0.80;;;6.40;99.90;;;;;;5088842;28;20131;-64
2023/03/06 12:03:42;;;;;;;3.00;0.60;;;6.30;99.90;;;;;;5071936;28;20036;-65
2023/03/06 12:06:22;;;;;;;1.95;0.70;;;6.20;99.90;;;;;;5069589;28;20093;-65
2023/03/06 12:09:13;;;;;;;3.47;1.05;;;6.10;99.90;;;;;;5072077;28;20040;-65
2023/03/06 12:11:47;;;;;;;3.33;0.60;;;6.10;99.90;;;;;;5072218;28;20091;-65
2023/03/06 12:14:27;;;;;;;4.78;0.80;;;6.10;99.90;;;;;;5070672;28;20072;-65
2023/03/06 12:17:14;;;;;;;3.25;0.70;;;6.10;99.90;;;;;;5072014;28;20043;-65
2023/03/06 12:19:57;;;;;;;2.35;0.98;;;6.30;99.90;;;;;;5071899;28;20037;-65
2023/03/06 12:22:26;;;;;;;1.73;0.55;;;6.30;99.90;;;;;;5070624;28;20044;-64
2023/03/06 12:25:29;;;;;;;2.90;1.30;;;6.30;99.90;;;;;;5071929;28;20040;-64
2023/03/06 12:28:04;;;;;;;1.48;0.55;;;6.30;99.90;;;;;;5071056;28;20049;-64
2023/03/06 12:30:38;;;;;;;3.72;0.95;;;6.30;99.90;;;;;;5070369;28;20037;-64
2023/03/06 12:33:19;;;;;;;4.20;0.90;;;6.40;99.90;;;;;;5070139;28;20044;-64
2023/03/06 12:36:03;;;;;;;2.40;0.80;;;6.40;99.90;;;;;;5071329;28;20052;-66
2023/03/06 12:38:56;;;;;;;2.13;0.68;;;6.50;99.90;;;;;;5053332;28;20128;-64
2023/03/06 12:41:55;;;;;;;1.45;0.50;;;6.60;99.90;;;;;;5069556;28;20052;-65
2023/03/06 12:44:46;;;;;;;3.50;1.00;;;6.60;99.90;;;;;;5070050;28;20044;-64
2023/03/06 12:47:16;;;;;;;4.30;1.25;;;6.60;99.90;;;;;;5069700;28;20056;-64
2023/03/06 12:49:46;;;;;;;4.97;1.02;;;6.60;99.90;;;;;;5069691;28;20040;-64
2023/03/06 12:52:26;;;;;;;3.80;0.70;;;6.60;99.90;;;;;;5053081;28;20041;-64
2023/03/06 12:54:53;;;;;;;3.92;0.70;;;6.60;99.90;;;;;;5053571;28;20043;-65
2023/03/06 12:57:22;;;;;;;5.22;0.77;;;6.60;99.90;;;;;;5071848;28;20082;-65
2023/03/06 12:59:48;;;;;;;1.52;0.50;;;6.70;99.90;;;;;;5075298;28;20385;-65
2023/03/06 13:02:38;;;;;;;2.13;0.68;;;6.80;99.90;;;;;;5073103;28;20036;-64
2023/03/06 13:05:20;;;;;;;1.75;0.60;;;6.80;99.90;;;;;;5073503;28;20040;-65
2023/03/06 13:08:10;;;;;;;1.33;0.55;;;6.90;99.90;;;;;;5073824;28;20385;-64
2023/03/06 13:10:38;;;;;;;2.15;0.70;;;6.90;99.90;;;;;;5073209;28;20050;-65